createdAt,value
2023-03-22T00:00:30.557Z,99165.34
2023-03-22T00:05:58.056Z,99153.31
2023-03-22T00:11:22.270Z,99173.03
2023-03-22T00:16:46.630Z,99185.19
2023-03-22T00:22:09.075Z,99194.25
2023-03-22T00:27:32.203Z,99185.38
2023-03-22T00:32:54.397Z,99204.72
2023-03-22T00:38:16.283Z,99205.03
2023-03-22T00:43:38.740Z,99239.28
2023-03-22T00:49:01.029Z,99233.25
2023-03-22T00:54:23.457Z,99211.47
2023-03-22T00:59:45.913Z,99267.31
2023-03-22T01:05:08.600Z,99287.38
2023-03-22T01:10:31.701Z,99292.56
2023-03-22T01:15:54.255Z,99298.78
2023-03-22T01:21:16.728Z,99319.16
2023-03-22T01:26:44.803Z,99322.41
2023-03-22T01:32:07.042Z,99328.28
2023-03-22T01:37:29.373Z,99345.03
2023-03-22T01:42:53.906Z,99344.69
2023-03-22T01:48:34.640Z,99365.97
2023-03-22T01:54:01.968Z,99347.34
2023-03-22T01:59:25.698Z,99380.94
2023-03-22T02:05:04.745Z,99402.22
2023-03-22T02:10:28.639Z,99399.66
2023-03-22T02:16:11.308Z,99417.56
2023-03-22T02:22:30.498Z,99421.06
2023-03-22T02:28:19.858Z,99428.59
2023-03-22T02:34:03.366Z,99440.38
2023-03-22T02:39:34.319Z,99450.19
2023-03-22T02:45:05.927Z,99448.47
2023-03-22T02:50:51.259Z,99453.78
2023-03-22T02:56:39.876Z,99450.34
2023-03-22T03:09:49.145Z,99470.50
2023-03-22T03:15:19.836Z,99459.66
2023-03-22T03:21:03.074Z,99466.56
2023-03-22T03:26:46.982Z,99478.88
2023-03-22T03:32:16.141Z,99481.06
2023-03-22T03:37:43.967Z,99481.31
2023-03-22T03:43:07.115Z,99494.88
2023-03-22T03:48:32.799Z,99501.91
2023-03-22T03:53:54.903Z,99503.16
2023-03-22T03:59:19.372Z,99506.94
2023-03-22T04:04:44.351Z,99529.06
2023-03-22T04:10:08.307Z,99530.59
2023-03-22T04:15:30.170Z,99542.31
2023-03-22T04:20:57.648Z,99557.97
2023-03-22T04:26:22.089Z,99569.22
2023-03-22T04:32:01.265Z,99567.63
2023-03-22T04:37:34.569Z,99562.22
2023-03-22T04:43:12.214Z,99566.50
2023-03-22T04:49:05.970Z,99587.19
2023-03-22T04:54:33.279Z,99559.88
2023-03-22T04:59:56.855Z,99558.06
2023-03-22T05:05:19.456Z,99576.97
2023-03-22T05:10:43.392Z,99571.94
2023-03-22T05:16:07.569Z,99617.56
2023-03-22T05:21:41.102Z,99623.44
2023-03-22T05:27:04.343Z,99631.31
2023-03-22T05:32:29.809Z,99607.25
2023-03-22T05:37:53.791Z,99643.31
2023-03-22T05:43:18.164Z,99645.03
2023-03-22T05:48:44.096Z,99644.81
2023-03-22T05:54:08.146Z,99616.69
2023-03-22T05:59:38.588Z,99632.16
2023-03-22T06:11:58.231Z,99662.41
2023-03-22T06:17:24.051Z,99637.31
2023-03-22T06:23:18.383Z,99654.84
2023-03-22T06:29:04.264Z,99641.47
2023-03-22T06:34:29.291Z,99669.81
2023-03-22T06:39:53.114Z,99668.50
2023-03-22T06:45:20.336Z,99660.19
2023-03-22T06:50:50.796Z,99647.44
2023-03-22T06:56:20.324Z,99661.53
2023-03-22T07:01:49.157Z,99682.72
2023-03-22T07:07:11.715Z,99686.41
2023-03-22T07:12:34.191Z,99691.34
2023-03-22T07:18:03.243Z,99701.09
2023-03-22T07:23:29.012Z,99688.84
2023-03-22T07:28:57.716Z,99669.63
2023-03-22T07:34:24.012Z,99708.53
2023-03-22T07:40:01.975Z,99696.69
2023-03-22T07:45:27.157Z,99717.03
2023-03-22T07:51:19.818Z,99713.81
2023-03-22T07:56:43.457Z,99717.13
2023-03-22T08:02:06.123Z,99719.34
2023-03-22T08:07:38.049Z,99720.50
2023-03-22T08:13:00.210Z,99722.47
2023-03-22T08:18:22.201Z,99698.78
2023-03-22T08:23:44.579Z,99718.63
2023-03-22T08:29:07.001Z,99731.44
2023-03-22T08:34:31.948Z,99732.03
2023-03-22T08:39:53.845Z,99719.25
2023-03-22T08:45:20.878Z,99732.69
2023-03-22T08:50:50.985Z,99735.22
2023-03-22T08:57:00.687Z,99720.56
2023-03-22T09:03:15.676Z,99713.31
2023-03-22T09:10:44.474Z,99705.59
2023-03-22T09:15:41.891Z,99715.25
2023-03-22T09:21:17.148Z,99714.22
2023-03-22T09:27:09.789Z,99742.69
2023-03-22T09:40:22.591Z,99731.53
2023-03-22T09:45:54.106Z,99728.28
2023-03-22T09:51:46.338Z,99750.53
2023-03-22T09:57:37.850Z,99744.69
2023-03-22T10:03:30.895Z,99754.63
2023-03-22T10:09:25.035Z,99761.59
2023-03-22T10:15:13.020Z,99715.50
2023-03-22T10:20:58.718Z,99721.94
2023-03-22T10:26:40.169Z,99738.81
2023-03-22T10:32:19.029Z,99756.50
2023-03-22T10:37:42.004Z,99755.16
2023-03-22T10:43:24.401Z,99739.81
2023-03-22T10:48:50.417Z,99762.06
2023-03-22T10:54:17.595Z,99705.78
2023-03-22T10:59:53.015Z,99740.59
2023-03-22T11:05:38.878Z,99740.38
2023-03-22T11:11:02.327Z,99746.09
2023-03-22T11:16:25.743Z,99729.28
2023-03-22T11:21:54.787Z,99728.22
2023-03-22T11:27:32.022Z,99748.34
2023-03-22T11:33:11.876Z,99765.44
2023-03-22T11:38:41.199Z,99749.38
2023-03-22T11:44:08.945Z,99745.63
2023-03-22T11:49:46.253Z,99746.44
2023-03-22T11:55:15.150Z,99739.44
2023-03-22T12:00:40.475Z,99754.72
2023-03-22T12:06:08.512Z,99749.38
2023-03-22T12:11:40.016Z,99767.88
2023-03-22T12:17:25.132Z,99771.06
2023-03-22T12:22:53.239Z,99762.00
2023-03-22T12:28:20.348Z,99760.94
2023-03-22T12:33:49.629Z,99760.13
2023-03-22T12:39:41.484Z,99768.69
2023-03-22T12:45:11.751Z,99753.44
2023-03-22T12:50:42.906Z,99757.22
2023-03-22T12:56:05.913Z,99751.09
2023-03-22T13:01:36.792Z,99750.53
2023-03-22T13:07:16.047Z,99755.06
2023-03-22T13:12:38.353Z,99762.28
2023-03-22T13:18:03.676Z,99741.44
2023-03-22T13:23:29.168Z,99744.13
2023-03-22T13:28:59.578Z,99761.22
2023-03-22T13:34:33.412Z,99769.28
2023-03-22T13:39:55.337Z,99750.03
2023-03-22T13:45:34.506Z,99753.75
2023-03-22T13:50:58.828Z,99755.34
2023-03-22T13:56:54.729Z,99761.50
2023-03-22T14:02:25.487Z,99732.03
2023-03-22T14:07:50.139Z,99754.28
2023-03-22T14:13:30.283Z,99758.59
2023-03-22T14:18:52.364Z,99733.41
